Time;durP1;ratioP1;P1;durP2;ratioP2;P2;SDS_P1;SDS_P2;PMS_P1;PMS_P2;Temp;Humidity;BMP_temperature;BMP_pressure;BME280_temperature;BME280_humidity;BME280_pressure;Samples;Min_cycle;Max_cycle;Signal;HPM_P1;HPM_P2
2021/06/13 00:03:00;;;;;;;14.07;3.83;;;13.40;86.20;;;;;;5982797;39;20121;-81
2021/06/13 00:07:02;;;;;;;16.15;2.95;;;13.40;86.60;;;;;;5976262;39;20036;-81
2021/06/13 00:11:04;;;;;;;14.40;3.15;;;13.40;86.30;;;;;;5980019;39;20100;-80
2021/06/13 00:15:07;;;;;;;;;;;13.30;86.50;;;;;;5984583;39;20044;-81
2021/06/13 00:19:10;;;;;;;19.48;3.15;;;13.40;85.90;;;;;;5982741;39;20624;-80
2021/06/13 00:23:13;;;;;;;15.07;3.05;;;13.40;86.30;;;;;;5981558;39;20052;-81
2021/06/13 00:27:15;;;;;;;14.23;3.95;;;13.40;86.20;;;;;;5983029;39;20040;-82
2021/06/13 00:31:17;;;;;;;;;;;13.30;86.50;;;;;;5977058;39;20043;-81
2021/06/13 00:35:21;;;;;;;12.63;2.58;;;14.00;86.70;;;;;;5983855;39;19932;-80
2021/06/13 00:39:23;;;;;;;14.80;3.20;;;14.20;86.90;;;;;;5982669;39;20036;-81
2021/06/13 00:43:25;;;;;;;13.90;3.45;;;13.10;86.30;;;;;;5981654;39;20038;-80
2021/06/13 00:47:26;;;;;;;15.90;3.85;;;13.20;86.70;;;;;;5981756;39;20039;-78
2021/06/13 00:51:29;;;;;;;13.15;2.83;;;13.10;86.70;;;;;;5985724;39;20128;-81
2021/06/13 00:55:33;;;;;;;11.45;2.92;;;14.20;87.30;;;;;;5987894;39;20058;-82
2021/06/13 00:59:35;;;;;;;10.45;2.47;;;13.10;86.60;;;;;;5982262;39;20024;-82
2021/06/13 01:03:38;;;;;;;12.27;3.20;;;14.00;87.00;;;;;;5987238;39;20080;-82
2021/06/13 01:08:14;;;;;;;11.95;2.47;;;13.20;86.40;;;;;;5975841;39;20036;-82
2021/06/13 01:12:28;;;;;;;11.52;2.75;;;13.20;86.20;;;;;;5992265;39;20032;-82
2021/06/13 01:16:51;;;;;;;14.23;3.05;;;13.20;86.20;;;;;;5985175;39;20047;-82
2021/06/13 01:21:02;;;;;;;12.27;3.13;;;13.20;86.50;;;;;;5985073;39;20593;-82
2021/06/13 01:25:16;;;;;;;17.58;3.40;;;13.20;86.60;;;;;;5982786;39;20687;-82
2021/06/13 01:29:38;;;;;;;14.95;3.40;;;13.20;86.50;;;;;;5979851;39;20035;-83
2021/06/13 01:33:42;;;;;;;13.45;3.67;;;13.20;86.90;;;;;;5983168;39;20064;-82
2021/06/13 01:37:53;;;;;;;15.05;4.40;;;13.10;86.90;;;;;;5983231;39;20115;-79
2021/06/13 01:42:00;;;;;;;12.43;3.13;;;13.50;87.80;;;;;;5980468;39;20059;-80
2021/06/13 01:46:09;;;;;;;9.27;3.08;;;13.20;86.90;;;;;;5983246;39;20930;-81
2021/06/13 01:50:12;;;;;;;12.20;2.90;;;13.20;87.10;;;;;;5991806;39;20044;-82
2021/06/13 01:54:16;;;;;;;17.02;2.50;;;13.20;87.20;;;;;;5991299;39;20045;-82
2021/06/13 01:58:20;;;;;;;8.80;2.65;;;13.20;86.60;;;;;;5985386;39;20034;-81
2021/06/13 02:02:33;;;;;;;16.30;3.05;;;14.30;87.00;;;;;;5978302;39;20550;-82
2021/06/13 02:11:08;;;;;;;11.82;2.97;;;13.20;86.70;;;;;;5870630;40;20721;-82
2021/06/13 02:15:12;;;;;;;10.90;2.85;;;14.40;87.60;;;;;;5870262;40;20773;-81
2021/06/13 02:19:18;;;;;;;18.02;3.80;;;13.20;87.10;;;;;;5872784;40;20031;-81
2021/06/13 02:23:27;;;;;;;12.98;3.38;;;13.20;87.10;;;;;;5854241;40;20050;-81
2021/06/13 02:27:33;;;;;;;15.23;3.28;;;13.30;87.30;;;;;;5868361;40;20046;-80
2021/06/13 02:31:40;;;;;;;13.95;3.20;;;13.70;87.60;;;;;;5868711;40;20675;-84
2021/06/13 02:35:48;;;;;;;12.93;3.05;;;13.20;87.10;;;;;;5904946;23;20047;-81
2021/06/13 02:39:52;;;;;;;14.55;3.30;;;13.30;87.10;;;;;;5851054;40;20054;-82
2021/06/13 02:44:07;;;;;;;10.65;3.30;;;13.20;86.60;;;;;;5859915;40;20168;-83
2021/06/13 02:48:15;;;;;;;16.15;3.45;;;13.00;86.40;;;;;;5930368;23;20059;-89
2021/06/13 02:52:24;;;;;;;15.07;3.97;;;13.30;86.30;;;;;;5626097;23;20598;-83
2021/06/13 02:56:48;;;;;;;15.43;3.97;;;16.20;87.80;;;;;;5825750;40;20020;-84
2021/06/13 03:00:54;;;;;;;15.07;4.40;;;13.30;86.00;;;;;;5834566;40;20047;-80
2021/06/13 03:05:05;;;;;;;15.35;3.83;;;13.40;86.00;;;;;;5828199;40;20043;-84
2021/06/13 03:09:08;;;;;;;12.40;3.97;;;13.40;86.20;;;;;;5827564;40;20091;-84
2021/06/13 03:13:11;;;;;;;17.77;4.75;;;13.30;86.00;;;;;;5824100;40;20047;-83
2021/06/13 03:17:17;;;;;;;15.38;4.85;;;14.20;86.60;;;;;;5839498;40;20034;-84
2021/06/13 03:21:22;;;;;;;12.10;4.65;;;14.20;85.60;;;;;;5833270;40;20926;-82
2021/06/13 03:25:25;;;;;;;14.48;4.38;;;13.20;84.60;;;;;;5838834;40;20652;-82
2021/06/13 03:29:28;;;;;;;11.98;4.55;;;13.30;83.70;;;;;;5842842;40;20560;-82
2021/06/13 03:33:35;;;;;;;16.27;4.60;;;13.30;83.50;;;;;;5833410;40;20055;-84
2021/06/13 03:37:39;;;;;;;13.30;4.20;;;13.20;83.50;;;;;;5841038;40;20163;-80
2021/06/13 03:41:44;;;;;;;15.88;5.30;;;13.30;83.80;;;;;;5880161;23;20187;-84
2021/06/13 03:45:50;;;;;;;14.52;4.70;;;13.40;83.60;;;;;;5866034;40;20035;-84
2021/06/13 03:49:53;;;;;;;11.88;4.72;;;14.10;84.00;;;;;;5872816;40;20054;-85
2021/06/13 03:53:59;;;;;;;10.88;4.80;;;13.30;83.20;;;;;;5903823;23;20094;-84
2021/06/13 04:02:49;;;;;;;11.77;5.07;;;13.50;83.30;;;;;;5904667;23;20144;-85
2021/06/13 04:07:01;;;;;;;13.93;5.13;;;13.70;82.80;;;;;;5874575;40;20050;-85
2021/06/13 04:11:05;;;;;;;12.27;4.82;;;14.10;83.00;;;;;;5876923;40;20033;-85
2021/06/13 04:15:09;;;;;;;15.68;5.68;;;13.70;83.10;;;;;;5944908;23;20113;-87
2021/06/13 04:19:11;;;;;;;15.80;5.32;;;13.60;83.50;;;;;;5875411;23;20111;-84
2021/06/13 04:23:14;;;;;;;13.82;5.55;;;14.20;84.10;;;;;;5853194;40;20775;-82
2021/06/13 04:27:21;;;;;;;13.32;5.75;;;13.50;83.90;;;;;;5885805;23;20110;-84
2021/06/13 04:31:24;;;;;;;15.48;5.65;;;14.90;84.90;;;;;;5896430;23;20043;-84
2021/06/13 04:35:26;;;;;;;17.05;6.22;;;13.70;84.20;;;;;;5856527;40;20031;-83
2021/06/13 04:39:28;;;;;;;20.27;5.78;;;15.70;85.70;;;;;;5860636;40;20616;-83
2021/06/13 04:43:30;;;;;;;19.52;6.60;;;14.80;84.90;;;;;;5852259;40;20051;-83
2021/06/13 04:47:32;;;;;;;17.40;6.30;;;14.00;84.30;;;;;;5867106;40;20725;-81
2021/06/13 04:51:37;;;;;;;16.27;6.22;;;14.00;84.40;;;;;;5851190;40;20070;-83
2021/06/13 04:55:45;;;;;;;16.13;5.55;;;15.10;85.50;;;;;;5862696;40;20338;-83
2021/06/13 04:59:47;;;;;;;15.10;6.28;;;14.70;85.10;;;;;;5856339;40;20055;-83
2021/06/13 05:03:49;;;;;;;19.63;5.47;;;14.20;84.70;;;;;;5852318;40;21673;-82
2021/06/13 05:07:51;;;;;;;18.15;5.72;;;14.40;84.90;;;;;;5855558;40;20034;-82
2021/06/13 05:11:53;;;;;;;13.52;4.93;;;14.50;84.80;;;;;;5852154;40;20093;-81
2021/06/13 05:15:55;;;;;;;14.85;5.40;;;14.40;84.40;;;;;;5861864;40;20046;-83
2021/06/13 05:19:57;;;;;;;21.15;5.43;;;16.10;85.10;;;;;;5849790;40;20046;-82
2021/06/13 05:24:01;;;;;;;20.05;5.18;;;14.70;84.30;;;;;;5858238;40;20035;-82
2021/06/13 05:28:06;;;;;;;18.73;5.07;;;15.30;84.50;;;;;;5853079;40;20051;-81
2021/06/13 05:32:08;;;;;;;15.40;5.30;;;14.80;84.20;;;;;;5858793;40;20027;-81
2021/06/13 05:36:10;;;;;;;19.45;5.40;;;14.80;84.40;;;;;;5848091;40;20067;-82
2021/06/13 05:40:12;;;;;;;16.85;5.03;;;15.70;84.70;;;;;;5839089;40;20054;-82
2021/06/13 05:44:14;;;;;;;17.23;5.80;;;14.60;84.60;;;;;;5848644;40;20043;-82
2021/06/13 05:48:16;;;;;;;16.30;5.32;;;14.50;84.80;;;;;;5852663;40;20042;-79
2021/06/13 05:52:18;;;;;;;;;;;14.50;84.80;;;;;;5853481;40;20047;-80
2021/06/13 05:56:20;;;;;;;17.77;5.57;;;17.60;86.50;;;;;;5844836;40;20396;-81
2021/06/13 06:00:25;;;;;;;14.82;5.20;;;15.90;85.90;;;;;;5859945;40;20043;-81
2021/06/13 06:04:27;;;;;;;14.13;5.38;;;14.80;85.10;;;;;;5853110;40;20075;-82
2021/06/13 06:08:29;;;;;;;18.27;5.20;;;14.40;84.90;;;;;;5841248;40;20523;-81
2021/06/13 06:12:31;;;;;;;16.88;5.10;;;14.40;85.10;;;;;;5852578;40;20188;-82
2021/06/13 06:16:33;;;;;;;;;;;14.40;85.10;;;;;;5848062;40;20466;-82
2021/06/13 06:20:35;;;;;;;12.10;3.90;;;15.00;84.90;;;;;;5844815;40;19991;-81
2021/06/13 06:24:38;;;;;;;13.57;3.10;;;14.40;84.60;;;;;;5854700;40;20047;-81
2021/06/13 06:28:39;;;;;;;17.05;3.53;;;15.30;85.40;;;;;;5858943;40;20031;-82
2021/06/13 06:32:43;;;;;;;13.07;3.17;;;16.50;85.50;;;;;;5858981;40;20051;-82
2021/06/13 06:36:46;;;;;;;12.02;2.90;;;14.70;84.40;;;;;;5855500;40;20043;-83
2021/06/13 06:40:48;;;;;;;10.30;2.88;;;14.90;84.90;;;;;;5851075;40;20034;-81
2021/06/13 06:44:52;;;;;;;8.95;2.53;;;15.40;84.90;;;;;;5845228;40;20058;-81
2021/06/13 06:48:54;;;;;;;11.80;3.63;;;15.00;84.50;;;;;;5858343;40;20057;-83
2021/06/13 06:52:56;;;;;;;;;;;15.10;84.70;;;;;;5851490;40;20055;-81
2021/06/13 06:56:58;;;;;;;9.00;2.97;;;15.10;84.20;;;;;;5847875;40;19946;-82
2021/06/13 07:01:00;;;;;;;14.10;3.22;;;16.70;85.30;;;;;;5850917;40;20054;-81
2021/06/13 07:05:05;;;;;;;14.63;2.92;;;15.10;85.10;;;;;;5843868;40;21058;-81
2021/06/13 07:09:07;;;;;;;13.75;3.40;;;15.00;84.70;;;;;;5852843;40;20067;-82
2021/06/13 07:13:10;;;;;;;10.27;3.25;;;16.50;85.60;;;;;;5848385;40;20045;-81
2021/06/13 07:17:12;;;;;;;10.55;3.10;;;15.10;84.50;;;;;;5839495;40;20151;-81
2021/06/13 07:21:14;;;;;;;11.05;3.40;;;15.20;84.50;;;;;;5851620;40;20059;-78
2021/06/13 07:25:16;;;;;;;;;;;15.40;83.90;;;;;;5850290;40;20049;-84
2021/06/13 07:29:18;;;;;;;10.23;3.47;;;15.50;84.30;;;;;;5850550;40;19990;-79
2021/06/13 07:33:22;;;;;;;12.45;3.60;;;15.50;84.20;;;;;;5849741;40;20250;-81
2021/06/13 07:37:24;;;;;;;12.07;4.00;;;15.70;84.00;;;;;;5846961;40;20043;-81
2021/06/13 07:41:26;;;;;;;13.77;4.15;;;15.40;83.40;;;;;;5847404;40;20059;-80
2021/06/13 07:45:28;;;;;;;15.95;4.00;;;15.90;83.00;;;;;;5850387;40;20567;-80
2021/06/13 07:49:30;;;;;;;10.13;3.72;;;16.00;83.00;;;;;;5854084;40;20215;-79
2021/06/13 07:53:32;;;;;;;13.65;3.92;;;16.20;82.20;;;;;;5858455;40;20046;-80
2021/06/13 07:57:35;;;;;;;14.00;3.35;;;18.00;83.10;;;;;;5853351;40;20067;-79
2021/06/13 08:01:36;;;;;;;15.23;4.95;;;18.20;83.10;;;;;;5841092;40;20043;-79
2021/06/13 08:05:38;;;;;;;15.05;4.13;;;18.20;83.60;;;;;;5857292;40;20047;-80
2021/06/13 08:09:40;;;;;;;11.20;4.07;;;16.80;81.30;;;;;;5856682;40;20592;-80
2021/06/13 08:13:42;;;;;;;15.38;4.13;;;17.00;80.50;;;;;;5852699;40;20051;-79
2021/06/13 08:17:44;;;;;;;9.23;4.10;;;17.90;80.50;;;;;;5850300;40;20350;-80
2021/06/13 08:21:49;;;;;;;13.38;5.13;;;18.00;80.90;;;;;;5837441;40;20068;-81
2021/06/13 08:25:50;;;;;;;12.65;4.22;;;17.10;80.20;;;;;;5861148;40;20042;-80
2021/06/13 08:29:52;;;;;;;10.55;4.93;;;17.60;80.10;;;;;;5860484;40;20050;-81
2021/06/13 08:33:55;;;;;;;11.95;5.22;;;17.20;79.70;;;;;;5848479;40;20027;-79
2021/06/13 08:37:59;;;;;;;10.15;4.30;;;17.40;78.80;;;;;;5827558;40;78695;-83
2021/06/13 08:47:43;;;;;;;13.75;4.80;;;17.80;79.10;;;;;;5849396;40;20043;-76
2021/06/13 08:51:46;;;;;;;15.07;5.30;;;18.00;77.60;;;;;;5853312;40;20035;-80
2021/06/13 08:55:48;;;;;;;11.68;4.90;;;18.90;77.30;;;;;;5847082;40;20027;-79
2021/06/13 08:59:50;;;;;;;10.60;4.97;;;18.10;76.60;;;;;;5850937;40;81932;-79
2021/06/13 09:03:55;;;;;;;16.67;5.25;;;18.20;76.90;;;;;;5855718;40;20107;-79
2021/06/13 09:08:00;;;;;;;16.30;5.03;;;19.40;78.30;;;;;;5839756;40;20079;-79
2021/06/13 09:12:05;;;;;;;10.02;4.20;;;18.30;77.90;;;;;;5839088;40;20063;-80
2021/06/13 09:16:07;;;;;;;10.85;4.45;;;18.60;78.20;;;;;;5851042;40;20067;-80
2021/06/13 09:20:20;;;;;;;;;;;18.70;78.60;;;;;;5855897;40;20047;-80
2021/06/13 09:24:24;;;;;;;14.77;4.70;;;18.80;80.30;;;;;;5850052;40;19945;-80
2021/06/13 09:28:27;;;;;;;12.20;4.32;;;18.80;79.40;;;;;;5850797;40;20431;-80
2021/06/13 09:32:29;;;;;;;10.43;4.50;;;18.90;79.50;;;;;;5836394;40;20395;-79
2021/06/13 09:36:33;;;;;;;12.98;4.43;;;20.50;80.10;;;;;;5849407;40;20043;-83
2021/06/13 09:40:38;;;;;;;15.63;4.80;;;19.30;77.50;;;;;;5848935;40;20054;-80
2021/06/13 09:44:39;;;;;;;10.63;4.45;;;19.00;78.40;;;;;;5850810;40;20038;-82
2021/06/13 09:48:46;;;;;;;10.57;4.43;;;19.20;78.40;;;;;;5852596;40;20074;-81
2021/06/13 09:52:48;;;;;;;11.55;4.85;;;19.20;78.00;;;;;;5841222;40;20059;-80
2021/06/13 09:56:50;;;;;;;;;;;19.20;77.40;;;;;;5841329;40;20489;-76
2021/06/13 10:00:51;;;;;;;9.20;4.28;;;19.90;78.70;;;;;;5839410;40;20014;-82
2021/06/13 10:04:53;;;;;;;10.82;4.55;;;19.00;77.90;;;;;;5849055;40;20043;-79
2021/06/13 10:08:56;;;;;;;18.70;4.63;;;20.10;78.90;;;;;;5852543;40;20035;-80
2021/06/13 10:13:01;;;;;;;15.30;4.53;;;19.10;78.40;;;;;;5846827;40;20066;-82
2021/06/13 10:17:04;;;;;;;10.73;3.75;;;19.40;76.20;;;;;;5850420;40;20043;-81
2021/06/13 10:21:12;;;;;;;11.20;4.30;;;19.40;76.40;;;;;;5838084;40;20047;-79
2021/06/13 10:25:14;;;;;;;10.32;4.10;;;19.30;77.10;;;;;;5848492;40;20047;-81
2021/06/13 10:29:18;;;;;;;8.77;3.97;;;19.40;76.10;;;;;;5845833;40;20083;-83
2021/06/13 10:33:21;;;;;;;11.93;3.83;;;19.70;75.80;;;;;;5833672;40;20594;-80
2021/06/13 10:37:23;;;;;;;7.70;3.47;;;19.80;75.30;;;;;;5849385;40;20255;-81
2021/06/13 10:41:25;;;;;;;10.00;3.70;;;19.70;76.50;;;;;;5853194;40;20059;-81
2021/06/13 10:45:31;;;;;;;8.65;3.25;;;20.20;76.20;;;;;;5842152;40;20053;-80
2021/06/13 10:49:39;;;;;;;8.55;3.28;;;21.50;77.00;;;;;;5840783;40;20130;-79
2021/06/13 10:53:40;;;;;;;9.13;3.22;;;20.00;75.30;;;;;;5839219;40;20070;-80
2021/06/13 10:57:43;;;;;;;;;;;20.40;74.40;;;;;;5838064;40;20040;-80
2021/06/13 11:02:13;;;;;;;9.65;3.30;;;20.50;75.50;;;;;;5835121;40;19946;-80
2021/06/13 11:06:38;;;;;;;8.90;3.47;;;20.50;74.20;;;;;;5846262;40;20027;-81
2021/06/13 11:10:41;;;;;;;7.63;3.03;;;20.60;74.80;;;;;;5816017;40;20047;-81
2021/06/13 11:14:54;;;;;;;9.32;3.40;;;20.60;74.30;;;;;;5843257;40;20497;-80
2021/06/13 11:19:28;;;;;;;10.25;3.80;;;20.50;74.50;;;;;;5842132;40;20074;-82
2021/06/13 11:23:30;;;;;;;13.27;3.13;;;20.50;74.40;;;;;;5844013;40;20474;-81
2021/06/13 11:27:32;;;;;;;;;;;20.40;75.40;;;;;;5841536;40;20091;-79
2021/06/13 11:31:42;;;;;;;12.75;3.28;;;20.30;75.90;;;;;;5838579;40;19942;-80
2021/06/13 11:35:45;;;;;;;12.82;3.80;;;20.30;75.40;;;;;;5838291;40;20035;-79
2021/06/13 11:39:56;;;;;;;9.43;2.95;;;20.10;74.90;;;;;;5847448;40;20047;-79
2021/06/13 11:44:01;;;;;;;11.10;3.40;;;20.10;75.90;;;;;;5833327;40;20063;-80
2021/06/13 11:48:21;;;;;;;17.08;4.03;;;20.20;75.50;;;;;;5846764;40;20695;-80
2021/06/13 11:52:47;;;;;;;10.20;3.33;;;20.50;75.20;;;;;;5839441;40;20091;-80
2021/06/13 11:56:53;;;;;;;10.05;2.90;;;20.60;74.90;;;;;;5838941;40;20185;-82
2021/06/13 12:00:59;;;;;;;12.80;3.22;;;20.50;74.20;;;;;;5845354;40;20649;-81
2021/06/13 12:05:07;;;;;;;13.57;3.20;;;20.50;74.60;;;;;;5845440;40;20098;-81
2021/06/13 12:09:16;;;;;;;8.88;3.15;;;20.30;74.50;;;;;;5844026;40;20059;-80
2021/06/13 12:13:18;;;;;;;8.10;3.03;;;20.30;75.60;;;;;;5850644;40;20067;-80
2021/06/13 12:17:25;;;;;;;;;;;20.70;75.90;;;;;;5842273;40;20059;-80
2021/06/13 12:21:29;;;;;;;11.43;3.33;;;20.40;76.00;;;;;;5839808;40;19937;-78
2021/06/13 12:29:55;;;;;;;8.88;3.22;;;20.70;74.80;;;;;;5842858;40;20379;-78
2021/06/13 12:33:57;;;;;;;10.43;3.40;;;20.70;74.70;;;;;;5835910;40;20110;-78
2021/06/13 12:38:03;;;;;;;;;;;20.70;73.80;;;;;;5832944;40;20047;-80
2021/06/13 12:42:12;;;;;;;9.35;3.50;;;20.70;72.60;;;;;;5826809;40;19993;-79
2021/06/13 12:46:14;;;;;;;9.05;3.20;;;20.60;75.00;;;;;;5828430;40;20379;-79
2021/06/13 12:50:25;;;;;;;7.75;2.83;;;20.90;75.30;;;;;;5844575;40;20050;-77
2021/06/13 12:54:27;;;;;;;7.55;2.55;;;20.80;75.40;;;;;;5841863;40;20059;-78
2021/06/13 12:58:30;;;;;;;;;;;21.00;74.50;;;;;;5843054;40;20043;-78
2021/06/13 13:02:34;;;;;;;6.90;2.83;;;20.80;76.30;;;;;;5828959;40;20029;-79
2021/06/13 13:06:49;;;;;;;9.10;3.17;;;20.90;74.80;;;;;;5826908;40;20427;-77
2021/06/13 13:10:59;;;;;;;8.30;2.47;;;21.10;74.80;;;;;;5835031;40;20047;-77
2021/06/13 13:15:13;;;;;;;8.93;2.53;;;21.10;74.00;;;;;;5829225;40;20058;-78
2021/06/13 13:19:29;;;;;;;11.90;3.42;;;21.10;73.70;;;;;;5835688;40;20062;-77
2021/06/13 13:23:39;;;;;;;7.20;2.75;;;21.00;74.40;;;;;;5822791;40;20053;-79
2021/06/13 13:27:42;;;;;;;5.95;2.33;;;20.70;75.20;;;;;;5825147;40;20166;-78
2021/06/13 13:31:44;;;;;;;8.48;3.08;;;20.70;74.60;;;;;;5836610;40;20055;-78
2021/06/13 13:35:46;;;;;;;6.20;2.08;;;21.10;75.00;;;;;;5827481;40;20089;-79
2021/06/13 13:40:06;;;;;;;;;;;20.60;74.30;;;;;;5834750;40;20134;-79
2021/06/13 13:44:09;;;;;;;6.32;2.10;;;20.50;75.00;;;;;;5837310;40;19942;-78
2021/06/13 13:48:18;;;;;;;6.22;2.10;;;20.50;74.70;;;;;;5837865;40;20042;-78
2021/06/13 13:52:22;;;;;;;5.35;1.90;;;20.40;74.10;;;;;;5841789;40;20101;-78
2021/06/13 13:56:25;;;;;;;6.80;1.73;;;20.50;74.50;;;;;;5827539;40;20039;-77
2021/06/13 14:00:27;;;;;;;5.93;2.03;;;20.60;73.80;;;;;;5821516;40;20404;-78
2021/06/13 14:04:31;;;;;;;;;;;20.70;72.90;;;;;;5828125;40;20039;-78
2021/06/13 14:08:44;;;;;;;7.90;1.73;;;20.70;72.90;;;;;;5834238;40;19946;-78
2021/06/13 14:12:47;;;;;;;7.53;1.83;;;20.70;73.40;;;;;;5827909;40;20059;-79
2021/06/13 14:16:50;;;;;;;6.95;2.13;;;21.40;74.00;;;;;;5831291;40;20051;-75
2021/06/13 14:20:52;;;;;;;8.00;2.35;;;20.60;72.50;;;;;;5833454;40;20087;-78
2021/06/13 14:24:54;;;;;;;;;;;20.60;73.40;;;;;;5834225;40;20059;-79
2021/06/13 14:28:55;;;;;;;7.25;2.92;;;21.00;74.80;;;;;;5844895;40;19938;-76
2021/06/13 14:32:57;;;;;;;7.80;2.80;;;20.70;76.00;;;;;;5836276;40;20543;-79
2021/06/13 14:36:59;;;;;;;;;;;20.40;75.20;;;;;;5824687;40;20051;-78
2021/06/13 14:41:02;;;;;;;6.22;2.47;;;20.40;75.40;;;;;;5831756;40;19987;-79
2021/06/13 14:45:06;;;;;;;11.65;2.80;;;20.40;75.30;;;;;;5831510;40;20071;-78
2021/06/13 14:49:08;;;;;;;9.18;2.75;;;20.20;76.10;;;;;;5831830;40;20055;-79
2021/06/13 14:53:10;;;;;;;10.85;2.90;;;20.20;76.20;;;;;;5832125;40;20051;-79
2021/06/13 14:57:12;;;;;;;;;;;20.00;77.30;;;;;;5831807;40;20051;-79
2021/06/13 15:01:15;;;;;;;8.07;2.58;;;20.50;77.40;;;;;;5831168;40;19953;-78
2021/06/13 15:05:17;;;;;;;9.57;2.75;;;19.90;77.00;;;;;;5829101;40;20046;-79
2021/06/13 15:09:19;;;;;;;8.05;2.33;;;20.50;77.40;;;;;;5835142;40;20067;-77
2021/06/13 15:13:21;;;;;;;;;;;20.10;76.00;;;;;;5833384;40;20142;-79
2021/06/13 15:17:23;;;;;;;6.70;2.20;;;20.10;76.80;;;;;;5820658;40;19940;-79
2021/06/13 15:21:28;;;;;;;6.35;2.80;;;20.20;76.90;;;;;;5836003;40;20077;-78
2021/06/13 15:25:30;;;;;;;7.78;2.63;;;20.20;76.90;;;;;;5834709;40;20368;-78
2021/06/13 15:29:32;;;;;;;;;;;20.20;77.30;;;;;;5827719;40;20079;-78
2021/06/13 15:33:34;;;;;;;10.55;2.67;;;20.00;77.40;;;;;;5836094;40;19968;-78
2021/06/13 15:37:36;;;;;;;;;;;19.90;77.30;;;;;;5831298;40;20225;-78
2021/06/13 15:41:39;;;;;;;8.10;2.47;;;20.00;77.20;;;;;;5834941;40;20014;-77
2021/06/13 15:45:41;;;;;;;7.95;2.13;;;20.00;77.00;;;;;;5830325;40;20115;-78
2021/06/13 15:49:43;;;;;;;9.63;2.60;;;20.00;76.80;;;;;;5839611;40;20048;-80
2021/06/13 15:53:55;;;;;;;7.97;2.45;;;20.20;77.00;;;;;;5834019;40;20106;-78
2021/06/13 15:58:01;;;;;;;7.13;2.17;;;19.80;76.70;;;;;;5836829;40;21071;-78
2021/06/13 16:02:03;;;;;;;8.25;2.58;;;19.90;76.60;;;;;;5831381;40;20059;-77
2021/06/13 16:06:05;;;;;;;7.65;2.30;;;19.80;76.80;;;;;;5833307;40;20063;-78
2021/06/13 16:10:07;;;;;;;6.93;2.40;;;19.90;76.20;;;;;;5824702;40;20062;-79
2021/06/13 16:14:10;;;;;;;11.38;2.47;;;19.90;76.70;;;;;;5831325;40;20322;-78
2021/06/13 16:18:12;;;;;;;7.25;2.28;;;19.80;76.90;;;;;;5807025;40;20051;-79
2021/06/13 16:22:14;;;;;;;8.15;2.17;;;19.90;77.00;;;;;;5830769;40;20043;-79
2021/06/13 16:26:15;;;;;;;;;;;19.80;77.10;;;;;;5826218;40;20043;-77
2021/06/13 16:30:18;;;;;;;8.27;2.30;;;20.40;77.70;;;;;;5826787;40;20258;-78
2021/06/13 16:34:20;;;;;;;6.38;2.13;;;19.70;77.10;;;;;;5821455;40;20134;-77
2021/06/13 16:38:22;;;;;;;5.63;1.85;;;19.70;76.30;;;;;;5833953;40;20050;-79
2021/06/13 16:42:24;;;;;;;;;;;19.70;76.50;;;;;;5830493;40;20224;-79
2021/06/13 16:46:29;;;;;;;8.13;2.10;;;19.60;76.90;;;;;;5836608;40;20109;-77
2021/06/13 16:50:32;;;;;;;8.95;2.33;;;19.60;76.50;;;;;;5830061;40;20047;-78
2021/06/13 16:54:33;;;;;;;;;;;19.50;77.60;;;;;;5831357;40;20576;-79
2021/06/13 16:58:35;;;;;;;10.70;2.80;;;19.60;77.70;;;;;;5837547;40;19954;-78
2021/06/13 17:02:37;;;;;;;;;;;19.40;77.60;;;;;;5831207;40;20055;-79
2021/06/13 17:06:39;;;;;;;9.35;2.55;;;19.30;78.00;;;;;;5828672;40;19938;-79
2021/06/13 17:10:41;;;;;;;7.63;2.40;;;19.30;78.20;;;;;;5837648;40;20553;-77
2021/06/13 17:14:44;;;;;;;7.75;2.35;;;19.30;78.10;;;;;;5830964;40;20483;-79
2021/06/13 17:18:46;;;;;;;7.07;2.00;;;19.80;77.70;;;;;;5832037;40;20047;-78
2021/06/13 17:22:49;;;;;;;6.78;1.88;;;19.30;77.40;;;;;;5842488;40;20101;-79
2021/06/13 17:26:51;;;;;;;6.60;2.30;;;19.20;78.40;;;;;;5831235;40;20466;-78
2021/06/13 17:30:53;;;;;;;10.18;2.25;;;18.80;78.00;;;;;;5824108;40;20068;-78
2021/06/13 17:34:55;;;;;;;8.63;2.22;;;19.30;78.60;;;;;;5841778;40;20047;-79
2021/06/13 17:38:57;;;;;;;9.73;2.70;;;19.10;78.20;;;;;;5833857;40;20130;-78
2021/06/13 17:43:00;;;;;;;9.50;2.50;;;19.00;78.30;;;;;;5837291;40;20448;-78
2021/06/13 17:47:02;;;;;;;9.15;2.60;;;18.90;78.10;;;;;;5842135;40;20366;-77
2021/06/13 17:51:05;;;;;;;9.48;3.08;;;18.90;78.30;;;;;;5836843;40;20407;-76
2021/06/13 17:55:08;;;;;;;7.43;1.90;;;18.80;78.40;;;;;;5839735;40;20551;-78
2021/06/13 17:59:11;;;;;;;8.65;2.35;;;18.90;78.50;;;;;;5830764;40;20258;-78
2021/06/13 18:03:13;;;;;;;7.22;2.45;;;19.20;79.00;;;;;;5839406;40;20736;-77
2021/06/13 18:07:17;;;;;;;;;;;18.00;78.30;;;;;;5841182;40;20050;-79
2021/06/13 18:11:19;;;;;;;8.45;2.28;;;18.60;78.80;;;;;;5842959;40;20241;-78
2021/06/13 18:15:23;;;;;;;9.02;2.88;;;18.60;79.10;;;;;;5840728;40;20043;-78
2021/06/13 18:19:25;;;;;;;10.40;2.70;;;18.50;79.30;;;;;;5839650;40;20047;-79
2021/06/13 18:23:27;;;;;;;10.35;3.20;;;18.50;79.70;;;;;;5838967;40;20055;-79
2021/06/13 18:27:29;;;;;;;13.00;2.95;;;18.50;80.30;;;;;;5830189;40;20322;-79
2021/06/13 18:31:31;;;;;;;;;;;19.70;81.20;;;;;;5845226;40;20047;-80
2021/06/13 18:35:33;;;;;;;10.07;3.40;;;18.20;79.70;;;;;;5831828;40;20008;-80
2021/06/13 18:39:35;;;;;;;;;;;18.20;80.80;;;;;;5833731;40;20090;-78
2021/06/13 18:43:37;;;;;;;12.50;3.00;;;18.60;80.00;;;;;;5842140;40;19942;-80
2021/06/13 18:47:40;;;;;;;11.48;3.00;;;18.60;81.50;;;;;;5844439;40;20047;-79
2021/06/13 18:51:42;;;;;;;9.02;3.28;;;18.00;81.30;;;;;;5843956;40;20067;-80
2021/06/13 18:55:44;;;;;;;;;;;18.00;81.40;;;;;;5837586;40;20522;-79
2021/06/13 18:59:46;;;;;;;10.23;3.10;;;17.90;80.40;;;;;;5833212;40;19971;-80
2021/06/13 19:03:49;;;;;;;;;;;17.80;81.60;;;;;;5837710;40;20521;-80
2021/06/13 19:07:50;;;;;;;8.90;2.83;;;17.70;80.40;;;;;;5842995;40;19954;-79
2021/06/13 19:11:52;;;;;;;13.27;3.38;;;17.60;81.80;;;;;;5841143;40;20549;-79
2021/06/13 19:15:54;;;;;;;;;;;17.60;82.00;;;;;;5849630;40;20314;-79
2021/06/13 19:19:56;;;;;;;8.20;3.05;;;17.60;80.70;;;;;;5845029;40;20032;-79
2021/06/13 19:23:58;;;;;;;13.52;3.80;;;18.60;82.70;;;;;;5833619;40;20050;-79
2021/06/13 19:28:00;;;;;;;10.60;3.60;;;17.30;82.40;;;;;;5839014;40;20544;-79
2021/06/13 19:32:03;;;;;;;10.18;3.28;;;17.50;82.90;;;;;;5836067;40;20142;-80
2021/06/13 19:36:06;;;;;;;11.30;3.63;;;17.30;83.10;;;;;;5844193;40;20070;-79
2021/06/13 19:40:09;;;;;;;12.23;3.60;;;17.20;83.20;;;;;;5849625;40;20991;-79
2021/06/13 19:44:11;;;;;;;16.52;3.67;;;17.10;83.60;;;;;;5843272;40;20039;-79
2021/06/13 19:48:13;;;;;;;;;;;18.00;84.30;;;;;;5842457;40;20264;-80
2021/06/13 19:52:15;;;;;;;11.60;3.85;;;17.00;81.60;;;;;;5848907;40;20353;-80
2021/06/13 19:56:18;;;;;;;12.52;4.22;;;17.00;83.80;;;;;;5838983;40;20508;-80
2021/06/13 20:00:21;;;;;;;11.82;3.97;;;16.90;83.90;;;;;;5853222;40;20118;-81
2021/06/13 20:04:29;;;;;;;9.73;3.95;;;16.90;84.40;;;;;;5842718;40;20305;-79
2021/06/13 20:08:32;;;;;;;13.68;4.22;;;16.90;84.50;;;;;;5852468;40;20058;-80
2021/06/13 20:12:34;;;;;;;13.98;3.83;;;16.80;84.60;;;;;;5848936;40;20065;-79
2021/06/13 20:16:36;;;;;;;11.50;4.45;;;16.70;84.90;;;;;;5850982;40;20112;-80
2021/06/13 20:20:38;;;;;;;;;;;16.70;84.90;;;;;;5842916;40;20553;-80
2021/06/13 20:24:40;;;;;;;11.82;3.78;;;16.60;83.50;;;;;;5845060;40;19994;-80
2021/06/13 20:28:42;;;;;;;9.32;3.70;;;17.10;84.70;;;;;;5846614;40;20062;-80
2021/06/13 20:32:46;;;;;;;9.68;3.80;;;16.60;84.60;;;;;;5841973;40;20047;-80
2021/06/13 20:36:48;;;;;;;13.80;4.15;;;16.50;85.00;;;;;;5856020;40;20065;-81
2021/06/13 20:40:50;;;;;;;;;;;17.10;85.30;;;;;;5849567;40;20529;-81
2021/06/13 20:44:53;;;;;;;13.65;4.43;;;16.50;82.40;;;;;;5849049;40;20627;-80
2021/06/13 20:48:55;;;;;;;14.77;4.25;;;16.60;84.80;;;;;;5855353;40;20051;-80
2021/06/13 20:52:58;;;;;;;13.32;4.43;;;16.40;85.20;;;;;;5847120;40;20071;-81
2021/06/13 20:57:01;;;;;;;13.00;3.97;;;16.30;85.10;;;;;;5853723;40;20063;-81
2021/06/13 21:01:03;;;;;;;;;;;16.20;85.60;;;;;;5850682;40;20043;-80
2021/06/13 21:05:06;;;;;;;;;;;16.20;82.90;;;;;;5854036;40;19946;-81
2021/06/13 21:09:08;;;;;;;17.45;4.80;;;16.10;82.30;;;;;;5850434;40;20388;-81
2021/06/13 21:13:12;;;;;;;11.77;4.25;;;16.10;84.80;;;;;;5844210;40;20031;-79
2021/06/13 21:17:16;;;;;;;14.70;4.40;;;16.10;85.40;;;;;;5840914;40;20075;-80
2021/06/13 21:21:19;;;;;;;10.60;4.25;;;16.00;85.60;;;;;;5854162;40;20067;-81
2021/06/13 21:25:24;;;;;;;14.38;4.88;;;15.90;85.80;;;;;;5843506;40;20718;-80
2021/06/13 21:29:27;;;;;;;11.63;4.80;;;15.90;86.00;;;;;;5850346;40;20047;-79
2021/06/13 21:33:29;;;;;;;14.75;4.65;;;16.60;86.70;;;;;;5852560;40;20070;-81
2021/06/13 21:37:31;;;;;;;8.57;4.20;;;17.90;87.60;;;;;;5846673;40;20395;-81